Time;durP1;ratioP1;P1;durP2;ratioP2;P2;SDS_P1;SDS_P2;PMS_P1;PMS_P2;Temp;Humidity;BMP_temperature;BMP_pressure;BME280_temperature;BME280_humidity;BME280_pressure;Samples;Min_cycle;Max_cycle;Signal;HPM_P1;HPM_P2
2021/07/22 00:00:54;;;;;;;6.72;3.53;;;;;;;20.92;62.28;101186.59;5101636;27;20493;-81
2021/07/22 00:03:20;;;;;;;9.98;4.32;;;;;;;20.89;62.37;101184.25;5112798;27;20028;-81
2021/07/22 00:05:46;;;;;;;9.07;4.22;;;;;;;20.88;62.23;101189.84;5091469;27;20097;-80
2021/07/22 00:08:11;;;;;;;9.88;4.05;;;;;;;20.80;62.52;101186.25;5113698;27;20027;-81
2021/07/22 00:10:38;;;;;;;10.98;4.13;;;;;;;20.70;63.06;101183.88;5103911;27;20114;-80
2021/07/22 00:13:04;;;;;;;6.78;3.95;;;;;;;20.67;63.28;101184.28;5120241;27;20035;-81
2021/07/22 00:15:29;;;;;;;7.40;4.93;;;;;;;20.60;63.91;101190.63;5115324;27;20039;-80
2021/07/22 00:17:55;;;;;;;8.52;4.45;;;;;;;20.56;63.99;101179.44;5103137;28;20036;-81
2021/07/22 00:20:21;;;;;;;6.45;3.92;;;;;;;20.55;64.14;101177.78;5105143;27;20032;-81
2021/07/22 00:22:46;;;;;;;14.25;4.93;;;;;;;20.55;64.29;101170.56;5112146;27;20046;-81
2021/07/22 00:25:12;;;;;;;9.52;4.82;;;;;;;20.60;64.37;101172.66;5131360;27;20443;-81
2021/07/22 00:27:38;;;;;;;7.28;4.80;;;;;;;20.60;63.96;101177.19;5112289;27;20039;-81
2021/07/22 00:30:05;;;;;;;9.45;4.35;;;;;;;20.54;63.57;101168.06;5093715;28;20027;-81
2021/07/22 00:32:31;;;;;;;5.03;2.97;;;;;;;20.41;63.42;101179.50;5111874;28;20031;-81
2021/07/22 00:34:56;;;;;;;13.90;3.60;;;;;;;20.28;63.30;101174.84;5111990;28;20042;-81
2021/07/22 00:37:22;;;;;;;6.30;3.63;;;;;;;20.11;63.60;101179.63;5090507;27;20035;-81
2021/07/22 00:39:48;;;;;;;3.55;3.25;;;;;;;19.95;64.08;101179.66;5132050;27;20370;-81
2021/07/22 00:42:14;;;;;;;9.90;3.35;;;;;;;19.80;64.41;101171.63;5096573;27;20118;-81
2021/07/22 00:44:40;;;;;;;8.50;3.47;;;;;;;19.74;64.94;101175.06;5095284;28;20111;-82
2021/07/22 00:47:06;;;;;;;5.32;3.78;;;;;;;19.68;64.88;101171.28;5113756;27;20035;-81
2021/07/22 00:49:32;;;;;;;6.75;4.10;;;;;;;19.66;65.04;101173.31;5096155;27;20071;-82
2021/07/22 00:52:00;;;;;;;4.85;3.65;;;;;;;19.65;65.37;101177.00;5096971;27;20031;-81
2021/07/22 00:54:26;;;;;;;11.75;4.05;;;;;;;19.61;65.56;101174.88;5094351;28;20035;-81
2021/07/22 00:56:52;;;;;;;6.25;4.15;;;;;;;19.52;65.83;101171.47;5111401;28;20039;-81
2021/07/22 00:59:18;;;;;;;7.05;4.57;;;;;;;19.49;66.03;101170.00;5111314;28;20393;-81
2021/07/22 01:01:44;;;;;;;9.63;4.03;;;;;;;19.46;66.10;101170.38;5093691;28;20047;-81
2021/07/22 01:04:11;;;;;;;7.55;4.47;;;;;;;19.44;66.04;101170.56;5093446;28;20035;-82
2021/07/22 01:06:37;;;;;;;14.90;4.38;;;;;;;19.45;66.45;101163.34;5093186;28;20084;-82
2021/07/22 01:09:10;;;;;;;8.00;4.40;;;;;;;19.49;66.30;101172.69;5092948;28;20438;-82
2021/07/22 01:11:42;;;;;;;10.15;4.47;;;;;;;19.48;66.52;101175.56;5093270;28;20449;-81
2021/07/22 01:14:07;;;;;;;7.50;5.03;;;;;;;19.47;66.53;101166.66;5093240;28;20039;-81
2021/07/22 01:16:33;;;;;;;9.68;4.80;;;;;;;19.49;66.49;101172.69;5093044;28;20093;-81
2021/07/22 01:18:59;;;;;;;8.73;4.82;;;;;;;19.43;66.48;101163.53;5098298;28;20031;-82
2021/07/22 01:21:25;;;;;;;12.48;5.18;;;;;;;19.40;66.86;101165.75;5109758;28;20039;-82
2021/07/22 01:23:52;;;;;;;10.77;4.72;;;;;;;19.39;66.71;101164.09;5122323;28;20059;-82
2021/07/22 01:26:33;;;;;;;7.45;4.80;;;;;;;19.37;66.81;101166.09;5131562;28;20075;-82
2021/07/22 01:29:08;;;;;;;8.10;4.55;;;;;;;19.37;66.76;101166.94;5096745;28;20058;-82
2021/07/22 01:31:33;;;;;;;7.03;4.47;;;;;;;19.45;66.49;101166.00;5096009;28;20031;-82
2021/07/22 01:34:01;;;;;;;10.82;5.05;;;;;;;19.46;66.64;101165.03;5113194;28;20028;-82
2021/07/22 01:36:27;;;;;;;7.50;4.15;;;;;;;19.42;66.51;101164.56;5131527;28;20027;-83
2021/07/22 01:38:54;;;;;;;6.53;4.47;;;;;;;19.44;66.62;101161.69;5098358;27;20466;-81
2021/07/22 01:41:20;;;;;;;6.18;4.20;;;;;;;19.38;66.85;101154.38;5117296;27;20031;-82
2021/07/22 01:43:46;;;;;;;9.20;4.32;;;;;;;19.38;67.14;101160.59;5135144;27;20072;-82
2021/07/22 01:46:17;;;;;;;6.53;4.63;;;;;;;19.32;67.12;101161.31;5113938;27;20046;-82
2021/07/22 01:48:44;;;;;;;10.25;4.90;;;;;;;19.36;67.14;101151.91;5117115;27;20038;-82
2021/07/22 01:51:10;;;;;;;13.27;4.88;;;;;;;19.39;67.21;101151.53;5135357;27;20031;-82
2021/07/22 01:53:38;;;;;;;11.23;4.85;;;;;;;19.42;66.98;101153.81;5130996;27;20442;-82
2021/07/22 01:56:06;;;;;;;6.95;4.63;;;;;;;19.42;66.91;101155.66;5116973;27;20031;-82
2021/07/22 01:58:32;;;;;;;7.80;4.72;;;;;;;19.40;66.88;101155.84;5116845;27;20513;-82
2021/07/22 02:01:04;;;;;;;8.68;4.60;;;;;;;19.34;66.76;101156.59;5110916;28;20036;-82
2021/07/22 02:03:32;;;;;;;20.17;5.65;;;;;;;19.38;66.67;101159.75;5096227;28;20122;-82
2021/07/22 02:05:58;;;;;;;13.20;4.90;;;;;;;19.33;66.66;101154.94;5108376;27;20035;-82
2021/07/22 02:08:25;;;;;;;21.73;4.60;;;;;;;19.30;66.72;101160.69;5116493;27;20391;-82
2021/07/22 02:10:52;;;;;;;10.10;4.10;;;;;;;19.27;66.84;101150.31;5116566;27;20045;-82
2021/07/22 02:13:17;;;;;;;7.70;4.55;;;;;;;19.23;66.69;101152.53;5116427;27;20032;-83
2021/07/22 02:15:48;;;;;;;10.63;4.13;;;;;;;19.20;66.88;101155.59;5079106;28;20055;-83
2021/07/22 02:18:23;;;;;;;10.05;4.18;;;;;;;19.18;66.87;101157.59;5095973;28;20043;-82
2021/07/22 02:20:50;;;;;;;8.38;4.97;;;;;;;19.15;67.04;101157.97;5114514;28;20107;-83
2021/07/22 02:23:16;;;;;;;7.38;4.55;;;;;;;19.13;67.00;101144.75;5113009;28;20039;-83
2021/07/22 02:25:58;;;;;;;8.15;4.72;;;;;;;19.12;66.97;101150.31;5113184;28;20140;-83
2021/07/22 02:28:23;;;;;;;8.73;4.57;;;;;;;19.13;66.99;101147.44;5099270;27;20501;-83
2021/07/22 02:30:50;;;;;;;7.22;4.60;;;;;;;19.16;66.78;101146.25;5106527;28;20036;-83
2021/07/22 02:33:16;;;;;;;9.32;4.13;;;;;;;19.18;66.56;101150.41;5107841;27;20118;-82
2021/07/22 02:35:42;;;;;;;14.27;4.20;;;;;;;19.21;66.63;101162.59;5116078;27;20039;-83
2021/07/22 02:38:26;;;;;;;6.65;4.47;;;;;;;19.22;66.32;101145.53;5133377;27;20123;-83
2021/07/22 02:40:51;;;;;;;10.13;3.78;;;;;;;19.23;66.36;101144.50;5134457;27;20565;-83
2021/07/22 02:43:18;;;;;;;14.00;3.97;;;;;;;19.24;65.98;101145.34;5115982;27;20050;-83
2021/07/22 02:45:44;;;;;;;8.10;4.38;;;;;;;19.24;65.92;101142.66;5115595;27;20051;-83
2021/07/22 02:48:12;;;;;;;6.75;4.15;;;;;;;19.23;65.83;101141.81;5115957;27;20035;-83
2021/07/22 02:50:39;;;;;;;7.70;3.67;;;;;;;19.19;65.87;101145.91;5081398;27;20031;-83
2021/07/22 02:53:07;;;;;;;6.60;3.95;;;;;;;19.11;66.06;101136.09;5098760;27;20397;-83
2021/07/22 02:56:09;;;;;;;8.57;4.07;;;;;;;19.01;66.40;101135.50;5103863;27;20042;-83
2021/07/22 02:58:36;;;;;;;8.25;4.32;;;;;;;19.00;66.41;101131.16;5098805;27;20035;-83
2021/07/22 03:01:02;;;;;;;5.30;3.80;;;;;;;18.96;66.75;101133.38;5098801;27;20393;-83
2021/07/22 03:03:28;;;;;;;11.65;4.22;;;;;;;18.96;66.48;101131.53;5098614;27;20375;-83
2021/07/22 03:05:56;;;;;;;6.90;3.80;;;;;;;18.87;66.75;101134.47;5115472;27;20563;-83
2021/07/22 03:08:24;;;;;;;6.88;3.75;;;;;;;18.83;66.80;101139.34;5098415;27;20374;-83
2021/07/22 03:10:51;;;;;;;7.72;4.07;;;;;;;18.79;67.04;101144.22;5098638;27;20087;-83
2021/07/22 03:13:17;;;;;;;13.00;3.92;;;;;;;18.75;66.83;101142.09;5098386;27;20039;-83
2021/07/22 03:15:42;;;;;;;6.43;3.78;;;;;;;18.73;67.20;101144.97;5115252;27;20516;-84
2021/07/22 03:18:28;;;;;;;12.07;4.50;;;;;;;18.71;67.29;101144.31;5133555;27;20095;-83
2021/07/22 03:20:54;;;;;;;9.70;4.20;;;;;;;18.78;67.16;101141.72;5081557;27;20503;-83
2021/07/22 03:23:21;;;;;;;10.10;3.95;;;;;;;18.78;67.23;101141.72;5132298;27;20118;-83
2021/07/22 03:25:52;;;;;;;6.85;3.53;;;;;;;18.79;67.12;101148.78;5115050;27;20049;-83
2021/07/22 03:28:37;;;;;;;4.53;4.13;;;;;;;18.76;66.94;101141.09;5115444;27;20043;-83
2021/07/22 03:31:22;;;;;;;4.63;3.63;;;;;;;18.73;67.08;101142.28;5115097;27;20035;-83
2021/07/22 03:33:55;;;;;;;5.60;4.00;;;;;;;18.70;66.86;101135.44;5097778;27;20478;-83
2021/07/22 03:36:22;;;;;;;5.10;3.92;;;;;;;18.65;67.22;101137.03;5115166;27;20393;-83
2021/07/22 03:39:05;;;;;;;7.80;4.03;;;;;;;18.59;67.50;101141.22;5110560;27;20035;-83
2021/07/22 03:41:31;;;;;;;5.75;3.97;;;;;;;18.57;67.47;101144.09;5101076;28;20096;-83
2021/07/22 03:44:06;;;;;;;8.63;4.65;;;;;;;18.60;67.29;101138.38;5094758;27;20043;-84
2021/07/22 03:46:32;;;;;;;7.72;4.60;;;;;;;18.62;67.34;101140.06;5078509;27;20039;-84
2021/07/22 03:48:58;;;;;;;5.65;4.30;;;;;;;18.61;67.51;101141.91;5094037;28;20043;-83
2021/07/22 03:51:24;;;;;;;6.57;4.07;;;;;;;18.54;67.67;101138.28;5094391;28;20112;-83
2021/07/22 03:53:51;;;;;;;11.48;4.60;;;;;;;18.46;68.00;101140.00;5060713;28;20111;-83
2021/07/22 03:56:17;;;;;;;6.60;4.40;;;;;;;18.41;68.51;101138.88;5106429;27;20489;-83
2021/07/22 03:59:18;;;;;;;14.13;4.40;;;;;;;18.37;68.47;101137.56;5108492;27;20066;-83
2021/07/22 04:01:44;;;;;;;6.05;3.85;;;;;;;18.39;68.47;101138.22;5096566;27;20038;-84
2021/07/22 04:04:15;;;;;;;8.70;4.47;;;;;;;18.41;68.65;101137.03;5114354;27;20119;-84
2021/07/22 04:06:41;;;;;;;9.43;3.95;;;;;;;18.44;68.34;101141.22;5097376;27;20031;-83
2021/07/22 04:09:14;;;;;;;8.10;3.75;;;;;;;18.47;68.35;101140.84;5097248;27;20054;-84
2021/07/22 04:11:51;;;;;;;7.70;4.13;;;;;;;18.47;68.42;101135.50;5116042;27;20062;-83
2021/07/22 04:14:36;;;;;;;8.13;4.35;;;;;;;18.44;68.52;101130.50;5079594;28;20036;-84
2021/07/22 04:17:22;;;;;;;13.82;4.45;;;;;;;18.38;68.67;101124.00;5086371;28;20046;-84
2021/07/22 04:20:03;;;;;;;10.15;4.03;;;;;;;18.39;68.82;101128.38;5076683;28;20042;-84
2021/07/22 04:23:07;;;;;;;6.80;4.22;;;;;;;18.42;68.79;101132.50;5028835;28;20078;-84
2021/07/22 04:25:41;;;;;;;6.90;4.13;;;;;;;18.47;68.74;101130.13;5020230;28;20062;-85
2021/07/22 04:28:16;;;;;;;;;;;;;;;18.09;69.58;101130.91;5079116;27;20042;-84
2021/07/22 04:30:43;;;;;;;8.75;4.43;;;;;;;18.49;68.49;101130.78;5093420;28;19976;-83
2021/07/22 04:33:25;;;;;;;7.60;4.50;;;;;;;18.50;68.43;101123.59;5105002;27;20386;-84
2021/07/22 04:35:56;;;;;;;7.05;4.15;;;;;;;18.50;68.38;101128.94;5097563;27;20041;-85
2021/07/22 04:38:54;;;;;;;9.65;3.80;;;;;;;18.46;68.31;101123.09;5093477;28;20035;-85
2021/07/22 04:41:38;;;;;;;6.90;4.00;;;;;;;18.40;68.24;101122.00;5111681;28;20040;-84
2021/07/22 04:44:12;;;;;;;6.70;4.53;;;;;;;18.37;68.69;101129.53;5092993;28;20056;-85
2021/07/22 04:46:56;;;;;;;9.68;4.25;;;;;;;18.32;68.87;101122.03;5096005;28;20639;-85
2021/07/22 04:49:36;;;;;;;11.43;5.28;;;;;;;18.31;69.06;101120.41;5078605;28;20035;-85
2021/07/22 04:52:22;;;;;;;9.43;4.85;;;;;;;18.31;69.17;101121.25;5110885;28;20055;-84
2021/07/22 04:55:02;;;;;;;7.00;4.43;;;;;;;18.35;69.24;101127.88;5093286;28;20054;-85
2021/07/22 04:57:29;;;;;;;6.32;4.32;;;;;;;18.38;69.22;101124.00;5093566;28;20039;-84
2021/07/22 04:59:57;;;;;;;10.05;3.85;;;;;;;18.41;68.67;101125.50;5093147;28;20455;-84
2021/07/22 05:02:26;;;;;;;8.38;3.95;;;;;;;18.39;68.52;101124.84;5081094;28;20393;-84
2021/07/22 05:04:52;;;;;;;5.00;3.80;;;;;;;18.37;68.69;101121.50;5096560;28;20091;-85
2021/07/22 05:07:18;;;;;;;6.30;3.53;;;;;;;18.39;68.38;101127.53;5113508;28;20042;-85
2021/07/22 05:10:15;;;;;;;10.75;4.00;;;;;;;18.35;68.24;101127.88;5109136;28;20035;-85
2021/07/22 05:13:03;;;;;;;11.30;3.67;;;;;;;18.34;68.43;101126.22;5112309;28;20081;-85
2021/07/22 05:16:08;;;;;;;5.30;4.75;;;;;;;18.34;68.58;101133.41;5087386;28;20089;-85
2021/07/22 05:18:46;;;;;;;6.13;5.00;;;;;;;18.35;68.82;101133.22;5097259;28;20032;-84
2021/07/22 05:21:30;;;;;;;5.95;4.50;;;;;;;18.37;69.12;101133.06;5114604;28;20129;-85
2021/07/22 05:24:16;;;;;;;6.60;4.78;;;;;;;18.46;68.91;101134.66;5100027;28;20503;-85
2021/07/22 05:26:49;;;;;;;11.65;4.85;;;;;;;18.55;68.88;101134.59;5080092;28;20046;-85
2021/07/22 05:29:22;;;;;;;11.73;4.20;;;;;;;18.64;68.85;101136.19;5080755;28;20043;-84
2021/07/22 05:32:01;;;;;;;6.03;3.47;;;;;;;18.68;68.82;101134.78;5097064;28;20028;-84
2021/07/22 05:34:38;;;;;;;7.60;3.83;;;;;;;18.73;68.68;101134.25;5096980;28;20032;-85
2021/07/22 05:37:12;;;;;;;5.45;4.20;;;;;;;18.80;68.58;101147.75;5107005;27;20054;-85
2021/07/22 05:39:47;;;;;;;7.32;4.65;;;;;;;18.81;68.57;101142.22;5100368;27;20035;-85
2021/07/22 05:42:13;;;;;;;6.20;4.72;;;;;;;18.86;68.89;101138.16;5083090;27;20042;-85
2021/07/22 05:44:39;;;;;;;7.40;4.60;;;;;;;18.87;69.19;101139.81;5100023;27;20613;-84
2021/07/22 05:47:05;;;;;;;9.10;5.07;;;;;;;18.89;69.38;101140.47;5135372;27;20126;-84
2021/07/22 05:49:31;;;;;;;7.57;5.35;;;;;;;18.93;69.74;101136.41;5135469;27;20033;-84
2021/07/22 05:51:57;;;;;;;7.38;5.30;;;;;;;18.97;70.31;101140.38;5098267;27;20046;-84
2021/07/22 05:54:23;;;;;;;7.45;5.13;;;;;;;19.01;70.36;101135.50;5086883;28;20023;-84
2021/07/22 05:56:48;;;;;;;6.00;4.72;;;;;;;19.04;70.18;101137.81;5112512;27;20035;-83
2021/07/22 05:59:14;;;;;;;8.40;5.05;;;;;;;18.98;70.42;101144.75;5116583;27;20038;-84
2021/07/22 06:01:40;;;;;;;11.80;5.05;;;;;;;18.94;70.73;101143.41;5116859;27;20027;-84
2021/07/22 06:04:05;;;;;;;8.02;4.72;;;;;;;18.91;71.06;101136.59;5099712;27;20035;-84
2021/07/22 06:06:34;;;;;;;8.35;5.00;;;;;;;18.87;71.58;101146.03;5133722;27;20042;-81
2021/07/22 06:09:01;;;;;;;9.82;5.25;;;;;;;18.87;71.98;101137.16;5116450;27;20028;-84
2021/07/22 06:11:27;;;;;;;8.73;5.13;;;;;;;18.90;72.02;101137.63;5113336;28;20030;-83
2021/07/22 06:13:53;;;;;;;6.70;4.55;;;;;;;18.95;72.27;101139.75;5114370;28;20024;-84
2021/07/22 06:16:19;;;;;;;8.48;6.30;;;;;;;19.00;72.51;101136.50;5079182;28;20477;-84
2021/07/22 06:18:44;;;;;;;10.43;6.15;;;;;;;19.05;73.16;101136.78;5095972;28;20031;-83
2021/07/22 06:21:15;;;;;;;7.90;5.45;;;;;;;19.05;73.34;101136.78;5112909;28;20456;-83
2021/07/22 06:23:41;;;;;;;12.80;6.05;;;;;;;19.06;73.95;101128.56;5079268;28;20059;-84
2021/07/22 06:26:08;;;;;;;10.82;5.95;;;;;;;19.09;74.42;101135.44;5094811;28;20035;-84
2021/07/22 06:28:34;;;;;;;9.20;6.18;;;;;;;19.19;74.45;101135.97;5096293;28;20047;-84
2021/07/22 06:31:00;;;;;;;9.13;6.45;;;;;;;19.25;74.68;101141.63;5095856;28;20509;-83
2021/07/22 06:33:25;;;;;;;7.82;6.40;;;;;;;19.33;74.75;101133.50;5095647;28;20405;-83
2021/07/22 06:35:52;;;;;;;9.48;6.47;;;;;;;19.43;74.91;101130.53;5095855;28;20042;-83
2021/07/22 06:38:18;;;;;;;9.25;6.82;;;;;;;19.51;75.08;101130.41;5078669;28;20074;-83
2021/07/22 06:40:44;;;;;;;9.60;5.57;;;;;;;19.57;75.35;101131.53;5113950;28;20039;-83
2021/07/22 06:43:10;;;;;;;16.17;6.35;;;;;;;19.64;75.66;101131.59;5095488;28;20032;-83
2021/07/22 06:45:38;;;;;;;15.40;6.63;;;;;;;19.71;76.01;101137.88;5095529;28;20051;-82
2021/07/22 06:48:04;;;;;;;9.95;6.78;;;;;;;19.77;76.45;101131.75;5078545;28;20032;-83
2021/07/22 06:50:30;;;;;;;9.57;7.30;;;;;;;19.82;76.82;101131.19;5113651;28;20032;-82
2021/07/22 06:52:55;;;;;;;8.45;6.55;;;;;;;19.92;77.04;101131.72;5095396;28;20038;-82
2021/07/22 06:55:21;;;;;;;11.43;7.38;;;;;;;20.00;77.41;101133.47;5078280;28;20498;-81
2021/07/22 06:57:50;;;;;;;15.35;6.95;;;;;;;20.14;77.77;101126.41;5113597;28;20035;-81
2021/07/22 07:00:16;;;;;;;9.98;6.95;;;;;;;20.29;77.58;101120.16;5095247;28;20035;-81
2021/07/22 07:02:42;;;;;;;14.80;6.50;;;;;;;20.39;77.73;101130.53;5109105;27;20489;-81
2021/07/22 07:05:08;;;;;;;10.63;6.72;;;;;;;20.51;77.80;101123.66;5133796;27;20164;-81
2021/07/22 07:07:34;;;;;;;8.43;5.80;;;;;;;20.65;77.79;101121.03;5098481;27;20111;-81
2021/07/22 07:10:00;;;;;;;12.40;6.65;;;;;;;20.79;77.74;101124.66;5115455;27;20427;-81
2021/07/22 07:12:26;;;;;;;9.32;6.85;;;;;;;20.97;78.09;101126.03;5115421;27;20088;-82
2021/07/22 07:15:08;;;;;;;;;;;;;;;20.80;78.53;101120.97;5193089;27;20247;-81
2021/07/22 07:17:34;;;;;;;8.10;5.55;;;;;;;21.37;76.97;101122.75;5173098;27;20230;-81
2021/07/22 07:19:59;;;;;;;8.35;5.72;;;;;;;21.55;76.41;101117.66;5155832;27;20037;-79
2021/07/22 07:22:25;;;;;;;8.18;5.68;;;;;;;21.78;75.42;101107.59;5192038;27;20041;-79
2021/07/22 07:24:51;;;;;;;8.90;6.00;;;;;;;22.05;74.67;101104.97;5172989;27;20038;-79
2021/07/22 07:27:16;;;;;;;7.60;5.45;;;;;;;22.24;73.24;101110.56;5191593;27;20045;-79
2021/07/22 07:29:42;;;;;;;15.35;5.28;;;;;;;22.39;72.97;101113.88;5155929;27;20089;-80
2021/07/22 07:32:08;;;;;;;7.60;4.50;;;;;;;22.61;71.61;101111.03;5191484;27;20030;-79
2021/07/22 07:34:33;;;;;;;7.32;3.75;;;;;;;22.77;70.85;101115.16;5172857;27;20377;-80
2021/07/22 07:36:59;;;;;;;7.82;4.85;;;;;;;22.87;70.33;101125.47;5172606;27;20480;-79
2021/07/22 07:39:25;;;;;;;6.10;3.92;;;;;;;22.96;69.51;101122.56;5191042;27;20026;-79
2021/07/22 07:41:50;;;;;;;9.60;4.68;;;;;;;23.07;69.11;101119.22;5191238;27;20042;-78
2021/07/22 07:44:16;;;;;;;6.00;3.65;;;;;;;23.12;68.65;101116.72;5181945;27;20062;-79
2021/07/22 07:46:42;;;;;;;7.55;4.03;;;;;;;23.16;68.31;101112.56;5186967;27;20022;-80
2021/07/22 07:49:08;;;;;;;7.65;4.13;;;;;;;23.26;67.72;101117.50;5191020;27;20091;-80
2021/07/22 07:51:34;;;;;;;5.45;3.63;;;;;;;23.37;67.66;101125.97;5150810;27;20453;-79
2021/07/22 07:54:00;;;;;;;4.85;2.97;;;;;;;23.39;66.86;101124.75;5141866;27;20044;-79
2021/07/22 07:56:26;;;;;;;6.00;3.42;;;;;;;23.48;66.20;101119.09;5172374;27;20053;-80
2021/07/22 07:58:51;;;;;;;5.53;2.60;;;;;;;23.61;65.40;101113.66;5172022;27;20034;-80
2021/07/22 08:01:17;;;;;;;6.63;2.90;;;;;;;23.62;64.33;101114.50;5157691;27;20030;-79
2021/07/22 08:03:43;;;;;;;8.57;2.97;;;;;;;23.54;63.39;101110.97;5190102;27;20042;-79
2021/07/22 08:06:09;;;;;;;12.00;2.92;;;;;;;23.53;63.39;101113.91;5168616;27;20023;-77
2021/07/22 08:08:34;;;;;;;5.80;2.80;;;;;;;23.53;63.75;101116.59;5171732;27;20030;-78
2021/07/22 08:11:00;;;;;;;4.45;3.10;;;;;;;23.67;63.61;101103.84;5188833;27;20499;-78
2021/07/22 08:13:27;;;;;;;5.65;3.22;;;;;;;23.82;62.45;101110.84;5150528;27;20398;-79
2021/07/22 08:15:53;;;;;;;9.40;2.65;;;;;;;23.83;62.20;101099.81;5153733;27;20053;-79
2021/07/22 08:18:19;;;;;;;7.88;2.90;;;;;;;23.86;62.06;101102.09;5166218;27;20039;-78
2021/07/22 08:20:45;;;;;;;6.75;3.28;;;;;;;23.92;62.50;101111.19;5184889;27;20053;-78
2021/07/22 08:23:11;;;;;;;5.70;3.10;;;;;;;24.00;62.51;101105.50;5152337;27;20048;-78
2021/07/22 08:25:37;;;;;;;4.22;2.83;;;;;;;24.01;61.52;101096.38;5181191;27;20453;-78
2021/07/22 08:28:04;;;;;;;6.30;3.15;;;;;;;24.01;61.08;101100.94;5149022;27;20052;-78
2021/07/22 08:30:30;;;;;;;3.42;3.00;;;;;;;23.94;59.89;101102.88;5169244;27;20086;-79
2021/07/22 08:32:55;;;;;;;4.90;2.00;;;;;;;23.84;59.30;101104.16;5156661;27;20038;-77
2021/07/22 08:35:21;;;;;;;4.82;2.35;;;;;;;23.86;58.97;101106.66;5176545;27;20416;-78
2021/07/22 08:37:47;;;;;;;7.65;2.33;;;;;;;23.96;59.11;101095.38;5176375;27;20109;-79
2021/07/22 08:40:14;;;;;;;5.88;2.20;;;;;;;24.15;58.71;101096.31;5157319;27;20075;-78
2021/07/22 08:42:43;;;;;;;9.38;2.65;;;;;;;24.27;58.57;101091.03;5176165;27;20031;-78
2021/07/22 08:45:10;;;;;;;3.83;2.40;;;;;;;24.33;58.21;101095.56;5175964;27;20035;-78
2021/07/22 08:47:36;;;;;;;6.43;2.42;;;;;;;24.44;57.36;101094.00;5175937;27;20030;-77
2021/07/22 08:50:03;;;;;;;4.03;2.22;;;;;;;24.50;57.04;101094.97;5175865;27;20117;-77
2021/07/22 08:52:29;;;;;;;5.68;2.25;;;;;;;24.60;57.14;101084.50;5172315;27;20029;-77
2021/07/22 08:54:54;;;;;;;3.50;1.92;;;;;;;24.69;55.82;101085.03;5155190;27;20046;-79
2021/07/22 08:57:29;;;;;;;5.72;2.00;;;;;;;24.67;55.39;101089.00;5154965;27;20030;-78
2021/07/22 08:59:57;;;;;;;6.10;2.03;;;;;;;24.74;55.20;101082.47;5155155;27;20062;-76
2021/07/22 09:02:27;;;;;;;3.22;1.80;;;;;;;24.90;55.79;101085.66;5166460;27;20053;-79
2021/07/22 09:04:57;;;;;;;9.20;2.67;;;;;;;25.06;54.79;101080.69;5175656;27;20030;-78
2021/07/22 09:07:24;;;;;;;5.60;1.88;;;;;;;25.15;54.36;101077.47;5156982;27;20086;-82
2021/07/22 09:10:05;;;;;;;4.43;2.33;;;;;;;25.09;52.80;101085.66;5175540;27;20392;-78
2021/07/22 09:12:41;;;;;;;9.65;2.00;;;;;;;25.25;51.65;101085.06;5172021;27;20114;-81
2021/07/22 09:15:10;;;;;;;3.53;1.90;;;;;;;25.40;52.07;101083.84;5166171;27;20054;-78
2021/07/22 09:17:36;;;;;;;7.18;2.53;;;;;;;25.51;52.76;101074.91;5164914;27;20030;-77
2021/07/22 09:20:03;;;;;;;4.82;1.90;;;;;;;25.63;52.23;101075.00;5154168;27;20035;-80
2021/07/22 09:22:36;;;;;;;9.45;1.98;;;;;;;25.74;51.92;101075.25;5153635;27;20041;-78
2021/07/22 09:25:03;;;;;;;5.25;2.20;;;;;;;25.91;51.01;101077.31;5153668;27;20062;-78
2021/07/22 09:27:32;;;;;;;2.80;1.60;;;;;;;26.01;50.14;101074.84;5168864;27;20058;-77
2021/07/22 09:30:00;;;;;;;6.22;2.13;;;;;;;26.09;49.89;101073.69;5168973;27;20372;-78
2021/07/22 09:32:32;;;;;;;3.92;1.67;;;;;;;26.16;49.12;101074.41;5174507;27;20042;-78
2021/07/22 09:35:12;;;;;;;6.43;2.20;;;;;;;26.21;48.80;101074.53;5174330;27;20372;-78
2021/07/22 09:37:46;;;;;;;5.00;1.60;;;;;;;26.46;48.17;101073.50;5172171;27;20492;-78
2021/07/22 09:40:36;;;;;;;5.20;2.08;;;;;;;26.44;46.75;101078.31;5167046;27;20392;-78
2021/07/22 09:43:02;;;;;;;3.38;1.83;;;;;;;26.56;46.29;101074.78;5156391;27;20065;-79
2021/07/22 09:45:30;;;;;;;4.32;2.00;;;;;;;26.69;46.01;101068.31;5138315;27;20085;-78
2021/07/22 09:48:06;;;;;;;3.28;1.60;;;;;;;26.59;44.37;101066.19;5137739;27;20033;-79
2021/07/22 09:50:39;;;;;;;3.22;2.00;;;;;;;26.72;44.25;101067.81;5120912;27;20039;-79
2021/07/22 09:53:07;;;;;;;5.68;2.60;;;;;;;26.88;44.67;101064.34;5173506;27;20035;-81
2021/07/22 09:55:34;;;;;;;2.35;1.70;;;;;;;27.05;44.20;101069.09;5173221;27;20113;-78
2021/07/22 09:58:04;;;;;;;6.15;2.28;;;;;;;27.16;43.43;101070.09;5173566;27;20043;-79
2021/07/22 10:00:31;;;;;;;5.47;1.83;;;;;;;27.25;43.49;101079.50;5155135;27;20034;-79
2021/07/22 10:02:59;;;;;;;4.07;1.92;;;;;;;27.33;43.15;101074.78;5151141;27;20384;-79
2021/07/22 10:05:28;;;;;;;4.15;1.85;;;;;;;27.35;41.39;101078.88;5152798;27;20027;-81
2021/07/22 10:07:55;;;;;;;6.25;2.10;;;;;;;27.32;40.83;101075.81;5170236;27;20026;-80
2021/07/22 10:10:23;;;;;;;5.68;2.10;;;;;;;27.37;39.94;101074.06;5137483;27;20038;-80
2021/07/22 10:13:01;;;;;;;3.90;1.90;;;;;;;27.33;39.66;101067.44;5154383;27;20039;-78
2021/07/22 10:15:37;;;;;;;3.47;2.30;;;;;;;27.31;40.30;101069.59;5173675;27;20086;-82
2021/07/22 10:18:05;;;;;;;4.07;2.00;;;;;;;27.26;40.48;101072.19;5149451;27;20030;-80
2021/07/22 10:20:33;;;;;;;3.63;2.40;;;;;;;27.22;39.80;101071.00;5152602;27;20030;-79
2021/07/22 10:23:00;;;;;;;5.85;2.60;;;;;;;27.18;39.91;101075.28;5153214;27;20034;-79
2021/07/22 10:25:26;;;;;;;5.55;2.65;;;;;;;27.28;40.31;101066.53;5171997;27;20023;-78
2021/07/22 10:27:53;;;;;;;4.75;2.33;;;;;;;27.42;40.61;101067.06;5171860;27;20026;-78
2021/07/22 10:30:21;;;;;;;5.55;2.22;;;;;;;27.49;41.11;101068.56;5171982;27;20045;-79
2021/07/22 10:32:59;;;;;;;3.10;2.17;;;;;;;27.76;41.23;101072.56;5153139;27;20407;-79
2021/07/22 10:35:33;;;;;;;4.38;2.30;;;;;;;27.86;40.40;101067.31;5172903;27;20026;-79
2021/07/22 10:38:14;;;;;;;6.70;2.53;;;;;;;27.94;40.19;101066.09;5154175;27;20370;-79
2021/07/22 10:40:47;;;;;;;8.77;2.53;;;;;;;28.10;40.12;101055.47;5172874;27;20384;-79
2021/07/22 10:43:29;;;;;;;4.30;2.17;;;;;;;28.14;40.47;101069.38;5150914;27;20038;-78
2021/07/22 10:45:56;;;;;;;5.72;2.50;;;;;;;28.33;39.83;101062.63;5170199;27;20034;-78
2021/07/22 10:48:28;;;;;;;5.25;2.38;;;;;;;28.42;38.73;101062.22;5164479;27;20027;-79
2021/07/22 10:50:54;;;;;;;6.35;2.15;;;;;;;28.47;39.34;101065.00;5151917;27;20037;-79
2021/07/22 10:53:36;;;;;;;3.22;2.50;;;;;;;28.41;39.68;101063.28;5130653;27;20129;-79
2021/07/22 10:56:02;;;;;;;5.68;2.60;;;;;;;28.54;39.62;101067.56;5151247;27;20023;-78
2021/07/22 10:58:32;;;;;;;4.10;2.45;;;;;;;28.56;40.53;101068.09;5155257;27;20027;-79
2021/07/22 11:01:02;;;;;;;3.65;2.80;;;;;;;28.54;40.20;101073.78;5156529;27;20030;-78
2021/07/22 11:03:37;;;;;;;4.43;2.55;;;;;;;28.51;40.28;101073.50;5150894;27;20025;-79
2021/07/22 11:06:06;;;;;;;;;;;;;;;28.13;40.70;101073.97;5155769;27;20495;-78
2021/07/22 11:08:36;;;;;;;4.32;2.58;;;;;;;28.34;41.08;101068.91;5139098;27;19946;-78
2021/07/22 11:11:08;;;;;;;6.30;3.00;;;;;;;28.20;40.22;101071.09;5155497;27;20034;-77
2021/07/22 11:13:40;;;;;;;4.45;2.25;;;;;;;28.15;41.03;101074.56;5155474;27;20454;-78
2021/07/22 11:16:07;;;;;;;8.77;3.42;;;;;;;28.09;40.80;101070.13;5132659;27;20336;-79
2021/07/22 11:18:39;;;;;;;5.97;3.05;;;;;;;28.08;41.28;101069.28;5133484;27;20019;-78
2021/07/22 11:21:06;;;;;;;7.20;2.47;;;;;;;28.14;41.64;101074.81;5134722;27;20496;-78
2021/07/22 11:23:32;;;;;;;3.17;2.22;;;;;;;28.18;41.10;101067.81;5134361;27;20083;-78
2021/07/22 11:25:57;;;;;;;4.40;2.30;;;;;;;28.10;41.53;101069.88;5139338;27;20504;-78
2021/07/22 11:28:25;;;;;;;4.15;2.65;;;;;;;28.11;41.06;101066.09;5156478;27;20029;-78
2021/07/22 11:31:10;;;;;;;4.22;2.67;;;;;;;28.02;40.22;101058.59;5112037;27;20092;-78
2021/07/22 11:33:37;;;;;;;5.00;2.63;;;;;;;28.09;39.51;101061.97;5150448;27;20035;-78
2021/07/22 11:36:09;;;;;;;6.60;2.35;;;;;;;28.15;40.08;101062.88;5128708;27;20109;-78